Time;durP1;ratioP1;P1;durP2;ratioP2;P2;SDS_P1;SDS_P2;PMS_P1;PMS_P2;Temp;Humidity;BMP_temperature;BMP_pressure;BME280_temperature;BME280_humidity;BME280_pressure;Samples;Min_cycle;Max_cycle;Signal;HPM_P1;HPM_P2
2022/01/21 00:02:57;;;;;;;8.68;2.47;;;-0.70;99.90;;;;;;20742684;28;20121;-75
2022/01/21 00:12:58;;;;;;;10.40;2.30;;;-1.00;99.90;;;;;;20745475;28;20112;-76
2022/01/21 00:33:18;;;;;;;4.97;1.95;;;-0.90;99.90;;;;;;20839155;28;20063;-76
2022/01/21 00:43:31;;;;;;;6.82;2.67;;;-1.00;99.90;;;;;;20838439;28;20638;-76
2022/01/21 00:53:32;;;;;;;11.60;3.60;;;-0.80;99.90;;;;;;20836533;28;20048;-76
2022/01/21 01:03:33;;;;;;;14.57;5.30;;;-0.80;99.90;;;;;;20836721;28;20107;-76
2022/01/21 01:23:51;;;;;;;14.05;4.57;;;-0.50;99.90;;;;;;20833053;28;20033;-75
2022/01/21 01:33:52;;;;;;;11.50;5.05;;;-0.50;99.90;;;;;;20834837;28;20041;-76
2022/01/21 01:54:15;;;;;;;30.30;12.60;;;-0.50;99.90;;;;;;20833101;28;20041;-74
2022/01/21 02:04:16;;;;;;;36.10;12.90;;;-0.50;99.90;;;;;;20830780;28;20033;-76
2022/01/21 02:14:23;;;;;;;14.43;8.32;;;-0.50;99.90;;;;;;20831543;28;20424;-76
2022/01/21 02:24:34;;;;;;;21.60;6.47;;;-0.50;99.90;;;;;;20830613;28;20505;-76
2022/01/21 02:34:36;;;;;;;15.27;6.90;;;-0.50;99.90;;;;;;20828057;28;20033;-76
2022/01/21 02:44:38;;;;;;;12.63;5.90;;;-0.60;99.90;;;;;;20828794;28;20025;-74
2022/01/21 02:54:39;;;;;;;17.50;5.72;;;-0.70;99.90;;;;;;20827034;28;20148;-75
2022/01/21 03:04:55;;;;;;;17.13;6.38;;;-0.80;99.90;;;;;;20826350;28;20124;-76
2022/01/21 03:14:56;;;;;;;14.88;5.88;;;-0.90;99.90;;;;;;20826042;28;20029;-75
2022/01/21 03:24:57;;;;;;;15.48;7.50;;;-0.80;99.90;;;;;;20825027;28;20036;-76
2022/01/21 03:34:59;;;;;;;18.02;6.80;;;-1.00;99.90;;;;;;20825664;28;20030;-76
2022/01/21 03:45:00;;;;;;;10.75;5.70;;;-0.90;99.90;;;;;;20825269;28;20033;-76
2022/01/21 03:55:01;;;;;;;16.55;5.55;;;-1.00;99.90;;;;;;20823130;28;20025;-75
2022/01/21 04:05:03;;;;;;;11.18;5.38;;;-0.90;99.90;;;;;;20806896;28;20036;-76
2022/01/21 04:15:05;;;;;;;24.15;10.25;;;-0.80;99.90;;;;;;20822818;28;20495;-76
2022/01/21 04:25:07;;;;;;;15.73;6.38;;;-0.60;99.90;;;;;;20822001;28;20511;-76
2022/01/21 04:35:08;;;;;;;11.57;5.15;;;-0.80;99.90;;;;;;20821579;28;20559;-75
2022/01/21 04:55:29;;;;;;;11.05;3.88;;;-1.10;99.90;;;;;;20820786;28;20044;-73
2022/01/21 05:05:30;;;;;;;8.75;4.45;;;-1.50;99.90;;;;;;20814120;28;20025;-75
2022/01/21 05:15:48;;;;;;;12.15;4.53;;;-1.50;99.90;;;;;;20835073;28;20396;-75
2022/01/21 05:25:49;;;;;;;13.50;4.60;;;-1.90;99.90;;;;;;20834125;28;20393;-76
2022/01/21 05:35:50;;;;;;;9.30;4.13;;;-2.40;99.90;;;;;;20833864;28;20377;-75
2022/01/21 05:46:26;;;;;;;13.75;6.10;;;-2.40;99.90;;;;;;20818168;28;20029;-75
2022/01/21 05:56:31;;;;;;;22.67;8.30;;;-2.60;99.90;;;;;;20751185;28;20045;-75
2022/01/21 06:06:47;;;;;;;18.63;7.63;;;-2.60;99.90;;;;;;20753238;28;20033;-75
2022/01/21 06:16:48;;;;;;;34.45;10.40;;;-2.90;99.90;;;;;;20824303;28;20033;-76
2022/01/21 06:26:49;;;;;;;26.33;6.68;;;-3.00;99.90;;;;;;20903744;22;20087;-77
2022/01/21 06:36:50;;;;;;;16.60;4.50;;;-3.00;99.90;;;;;;20907809;28;20029;-77
2022/01/21 06:46:51;;;;;;;12.98;5.47;;;-3.00;99.90;;;;;;20911255;28;20048;-76
2022/01/21 06:56:51;;;;;;;11.40;4.18;;;-3.00;99.90;;;;;;20910110;28;20047;-74
2022/01/21 07:06:56;;;;;;;12.20;4.07;;;-3.00;99.90;;;;;;20879880;28;20044;-77
2022/01/21 07:16:57;;;;;;;42.78;11.57;;;-2.80;99.90;;;;;;20826096;28;20104;-77
2022/01/21 07:26:58;;;;;;;31.52;10.90;;;-2.70;99.90;;;;;;20821434;28;20080;-74
2022/01/21 07:36:58;;;;;;;25.33;9.55;;;-2.40;99.90;;;;;;20824729;28;20044;-76
2022/01/21 07:46:59;;;;;;;19.33;7.03;;;-2.20;99.90;;;;;;20824868;28;20033;-76
2022/01/21 07:57:02;;;;;;;17.98;6.85;;;-2.00;99.90;;;;;;20824415;28;20029;-75
2022/01/21 08:07:03;;;;;;;16.08;6.15;;;-1.70;99.90;;;;;;20823946;28;20042;-76
2022/01/21 08:17:04;;;;;;;12.80;5.32;;;-1.40;99.90;;;;;;20822650;28;20061;-76
2022/01/21 08:27:05;;;;;;;10.95;4.35;;;-1.10;99.90;;;;;;20823395;28;20040;-75
2022/01/21 08:37:06;;;;;;;16.08;5.68;;;-0.90;99.90;;;;;;20831350;28;20112;-75
2022/01/21 08:47:07;;;;;;;10.35;4.10;;;0.30;99.90;;;;;;20837570;28;20111;-74
2022/01/21 08:57:08;;;;;;;26.02;9.20;;;1.50;99.90;;;;;;20837115;28;20037;-76
2022/01/21 09:07:08;;;;;;;52.90;18.30;;;2.90;99.90;;;;;;20836364;28;20036;-76
2022/01/21 09:17:10;;;;;;;51.17;20.55;;;3.00;99.90;;;;;;20835948;28;20104;-76
2022/01/21 09:27:11;;;;;;;31.15;12.68;;;2.90;99.90;;;;;;20834738;28;20128;-77
2022/01/21 09:37:11;;;;;;;;;;;4.00;99.90;;;;;;20834630;28;20061;-77
2022/01/21 09:47:15;;;;;;;16.77;7.20;;;4.60;99.90;;;;;;20831737;28;20310;-77
2022/01/21 09:57:24;;;;;;;25.58;12.10;;;6.60;99.90;;;;;;20835503;28;20685;-76
2022/01/21 10:07:26;;;;;;;25.38;11.48;;;5.70;99.90;;;;;;20833518;28;20032;-77
2022/01/21 10:17:26;;;;;;;12.40;4.30;;;5.10;99.90;;;;;;20839792;28;20394;-78
2022/01/21 10:27:33;;;;;;;13.40;5.83;;;6.70;99.90;;;;;;20849339;28;20041;-78
2022/01/21 10:37:36;;;;;;;15.52;7.22;;;7.30;99.90;;;;;;20848927;28;20037;-76
2022/01/21 10:47:39;;;;;;;17.20;5.43;;;7.50;99.90;;;;;;20851265;28;20516;-79
2022/01/21 10:57:40;;;;;;;15.48;5.15;;;7.70;99.90;;;;;;20846966;28;20033;-78
2022/01/21 11:07:52;;;;;;;9.17;4.77;;;8.30;99.90;;;;;;20841153;28;20033;-78
2022/01/21 11:18:02;;;;;;;;;;;7.60;99.90;;;;;;20829146;28;20060;-78
2022/01/21 11:28:03;;;;;;;8.65;4.07;;;8.10;99.90;;;;;;20826995;28;20039;-76
2022/01/21 11:38:12;;;;;;;6.77;2.77;;;6.30;99.90;;;;;;20826752;28;20029;-78
2022/01/21 11:58:22;;;;;;;7.10;2.72;;;7.90;99.90;;;;;;20824072;28;20077;-75
2022/01/21 12:08:45;;;;;;;8.70;2.08;;;7.90;99.90;;;;;;20828281;28;20040;-77
2022/01/21 12:28:59;;;;;;;7.95;1.80;;;4.70;99.90;;;;;;20753234;28;20106;-74
2022/01/21 12:49:31;;;;;;;8.68;2.88;;;8.10;99.90;;;;;;20736638;28;20030;-74
2022/01/21 12:59:55;;;;;;;2.85;1.00;;;7.30;99.90;;;;;;20735493;28;20037;-76
2022/01/21 13:10:28;;;;;;;7.32;2.17;;;6.30;99.90;;;;;;20735037;28;20041;-76
2022/01/21 13:20:31;;;;;;;3.38;0.82;;;5.50;99.90;;;;;;20652198;28;20046;-76
2022/01/21 13:30:36;;;;;;;2.17;0.88;;;5.40;99.90;;;;;;20723315;28;20691;-76
2022/01/21 13:40:40;;;;;;;2.67;0.77;;;5.70;99.90;;;;;;20731127;28;20069;-74
2022/01/21 13:50:46;;;;;;;2.20;0.50;;;8.00;99.90;;;;;;20730247;28;20091;-75
2022/01/21 14:00:48;;;;;;;3.53;0.80;;;7.10;99.90;;;;;;20713296;28;20041;-75
2022/01/21 14:10:54;;;;;;;1.23;0.60;;;6.60;99.90;;;;;;20730009;28;20038;-74
2022/01/21 14:21:13;;;;;;;5.38;1.30;;;6.60;99.90;;;;;;20735627;28;20038;-76
2022/01/21 14:31:43;;;;;;;3.20;0.93;;;6.10;99.90;;;;;;20761192;28;20107;-75
2022/01/21 14:41:55;;;;;;;5.57;1.40;;;6.10;99.90;;;;;;20729950;28;20034;-74
2022/01/21 15:02:15;;;;;;;4.03;1.10;;;6.00;99.90;;;;;;20724098;28;20030;-76
2022/01/21 15:22:54;;;;;;;4.03;1.10;;;4.60;99.90;;;;;;20724916;28;20041;-74
2022/01/21 15:32:57;;;;;;;3.60;0.97;;;4.60;99.90;;;;;;20723447;28;20033;-74
2022/01/21 15:42:58;;;;;;;4.95;1.00;;;4.60;99.90;;;;;;20723430;28;20047;-74
2022/01/21 15:52:58;;;;;;;3.05;1.38;;;4.10;99.90;;;;;;20680456;28;20665;-74
2022/01/21 16:03:04;;;;;;;3.30;2.03;;;3.60;99.90;;;;;;20722331;28;20487;-75
2022/01/21 16:13:04;;;;;;;3.83;1.08;;;3.20;99.90;;;;;;20722575;28;20492;-74
2022/01/21 16:23:06;;;;;;;4.22;2.15;;;3.00;99.90;;;;;;20720253;28;20042;-74
2022/01/21 16:33:07;;;;;;;11.05;4.20;;;2.90;99.90;;;;;;20721503;28;20029;-73
2022/01/21 16:43:11;;;;;;;12.95;1.77;;;2.40;99.90;;;;;;20721438;28;20045;-74
2022/01/21 16:53:14;;;;;;;13.57;3.70;;;2.20;99.90;;;;;;20720652;28;20029;-73
2022/01/21 17:03:17;;;;;;;33.92;9.95;;;2.20;99.90;;;;;;20734007;28;20777;-74
2022/01/21 17:13:18;;;;;;;24.85;10.35;;;2.20;99.90;;;;;;20734627;28;20038;-74
2022/01/21 17:23:19;;;;;;;26.00;8.07;;;2.20;99.90;;;;;;20738275;28;20041;-73
2022/01/21 17:33:20;;;;;;;14.05;5.70;;;2.10;99.90;;;;;;20748428;28;20030;-75
2022/01/21 17:43:22;;;;;;;11.57;4.18;;;1.90;99.90;;;;;;20748792;28;20026;-75
2022/01/21 17:53:23;;;;;;;10.30;3.10;;;2.10;99.90;;;;;;20752924;28;20048;-75
2022/01/21 18:03:24;;;;;;;9.05;4.88;;;1.60;99.90;;;;;;20733520;28;20049;-74
2022/01/21 18:13:26;;;;;;;58.58;21.23;;;1.40;99.90;;;;;;20749488;28;20492;-75
2022/01/21 18:23:28;;;;;;;16.02;6.10;;;1.40;99.90;;;;;;20749067;28;20041;-74
2022/01/21 18:33:29;;;;;;;12.45;5.10;;;1.10;99.90;;;;;;20748389;28;20060;-75
2022/01/21 18:43:30;;;;;;;7.63;3.20;;;1.30;99.90;;;;;;20826857;22;20080;-75
2022/01/21 18:53:32;;;;;;;5.78;2.50;;;0.90;99.90;;;;;;20903758;28;20511;-76
2022/01/21 19:03:33;;;;;;;6.28;2.47;;;0.80;99.90;;;;;;20910211;28;20045;-76
2022/01/21 19:13:34;;;;;;;5.07;2.38;;;0.50;99.90;;;;;;20891444;28;20364;-75
2022/01/21 19:23:36;;;;;;;8.65;3.08;;;0.30;99.90;;;;;;20908027;28;20037;-76
2022/01/21 19:33:37;;;;;;;8.05;3.13;;;0.30;99.90;;;;;;20905479;28;20029;-75
2022/01/21 19:43:38;;;;;;;10.07;3.45;;;0.10;99.90;;;;;;20888534;28;20068;-75
2022/01/21 19:53:40;;;;;;;12.63;4.40;;;0.00;99.90;;;;;;20824824;28;20585;-75
2022/01/21 20:14:26;;;;;;;15.48;5.45;;;0.10;99.90;;;;;;20780054;28;20072;-75
2022/01/21 20:24:28;;;;;;;13.55;6.47;;;0.10;99.90;;;;;;20805259;28;20037;-75
2022/01/21 20:34:29;;;;;;;19.52;7.38;;;0.20;99.90;;;;;;20874560;28;20070;-75
2022/01/21 20:44:41;;;;;;;18.27;8.38;;;0.30;99.90;;;;;;20876642;28;20041;-76
2022/01/21 20:54:42;;;;;;;18.73;7.80;;;0.40;99.90;;;;;;20837708;28;20486;-75
2022/01/21 21:04:43;;;;;;;14.15;5.22;;;0.30;99.90;;;;;;20835986;28;20029;-74
2022/01/21 21:14:51;;;;;;;11.77;4.47;;;0.20;99.90;;;;;;20817608;28;20044;-74
2022/01/21 21:24:53;;;;;;;9.70;4.45;;;0.50;99.90;;;;;;20951614;28;20094;-74
2022/01/21 23:07:54;;;;;;;10.93;4.95;;;0.30;99.90;;;;;;20878585;28;20517;-75
2022/01/21 23:17:58;;;;;;;10.38;5.28;;;0.20;99.90;;;;;;20872192;28;20032;-75
2022/01/21 23:28:10;;;;;;;10.77;4.70;;;0.30;99.90;;;;;;20888827;28;20024;-73
2022/01/21 23:48:12;;;;;;;11.02;4.28;;;0.20;99.90;;;;;;20881787;28;20064;-73
2022/01/21 23:58:13;;;;;;;9.15;4.22;;;0.20;99.90;;;;;;20819193;28;20068;-75
